createdAt,value
2019-01-28T00:00:50.829Z,78.50
2019-01-28T00:03:26.237Z,85.17
2019-01-28T00:06:01.737Z,78.12
2019-01-28T00:08:37.129Z,72.82
2019-01-28T00:11:11.506Z,69.87
2019-01-28T00:13:46.419Z,64.82
2019-01-28T00:16:21.185Z,67.40
2019-01-28T00:18:56.496Z,68.12
2019-01-28T00:21:31.549Z,78.83
2019-01-28T00:24:06.037Z,80.32
2019-01-28T00:26:39.843Z,86.70
2019-01-28T00:29:14.473Z,86.22
2019-01-28T00:31:48.714Z,76.30
2019-01-28T00:34:23.329Z,71.80
2019-01-28T00:36:57.361Z,62.27
2019-01-28T00:39:32.371Z,84.00
2019-01-28T00:42:06.774Z,94.45
2019-01-28T00:44:40.553Z,94.47
2019-01-28T00:47:14.856Z,96.30
2019-01-28T00:49:49.497Z,74.60
2019-01-28T00:52:23.334Z,73.52
2019-01-28T00:54:57.445Z,65.60
2019-01-28T00:57:33.865Z,56.75
2019-01-28T01:00:09.740Z,61.05
2019-01-28T01:02:44.011Z,56.77
2019-01-28T01:05:18.008Z,57.20
2019-01-28T01:07:52.354Z,58.10
2019-01-28T01:10:26.532Z,57.30
2019-01-28T01:13:00.342Z,58.78
2019-01-28T01:15:34.714Z,60.85
2019-01-28T01:18:09.845Z,59.63
2019-01-28T01:20:44.386Z,55.83
2019-01-28T01:23:19.409Z,64.80
2019-01-28T01:25:54.217Z,63.45
2019-01-28T01:28:28.878Z,60.73
2019-01-28T01:31:03.123Z,65.75
2019-01-28T01:33:38.119Z,62.62
2019-01-28T01:36:13.317Z,65.45
2019-01-28T01:38:47.595Z,61.85
2019-01-28T01:41:22.590Z,61.90
2019-01-28T01:43:56.534Z,60.70
2019-01-28T01:46:30.478Z,64.07
2019-01-28T01:49:05.848Z,64.85
2019-01-28T01:51:41.705Z,60.35
2019-01-28T01:54:14.996Z,59.70
2019-01-28T01:56:49.280Z,60.43
2019-01-28T01:59:23.559Z,57.70
2019-01-28T02:01:58.162Z,64.27
2019-01-28T02:04:32.427Z,74.58
2019-01-28T02:07:06.801Z,82.35
2019-01-28T02:09:42.771Z,85.30
2019-01-28T02:12:18.479Z,92.35
2019-01-28T02:14:53.105Z,80.42
2019-01-28T02:20:02.876Z,109.52
2019-01-28T02:22:36.751Z,86.70
2019-01-28T02:25:10.399Z,68.20
2019-01-28T02:27:44.261Z,67.05
2019-01-28T02:30:21.710Z,61.83
2019-01-28T02:32:55.610Z,60.90
2019-01-28T02:35:29.014Z,60.05
2019-01-28T02:38:03.625Z,57.15
2019-01-28T02:40:38.188Z,55.08
2019-01-28T02:43:12.585Z,56.63
2019-01-28T02:45:46.405Z,53.90
2019-01-28T02:48:21.161Z,55.55
2019-01-28T02:50:55.436Z,65.62
2019-01-28T02:53:29.834Z,62.62
2019-01-28T02:56:03.986Z,59.80
2019-01-28T02:58:39.373Z,64.90
2019-01-28T03:01:12.942Z,61.88
2019-01-28T03:03:46.770Z,56.92
2019-01-28T03:06:20.879Z,66.02
2019-01-28T03:08:54.749Z,67.40
2019-01-28T03:11:28.760Z,58.28
2019-01-28T03:14:02.975Z,66.47
2019-01-28T03:16:37.326Z,58.10
2019-01-28T03:19:11.638Z,57.70
2019-01-28T03:21:46.518Z,53.52
2019-01-28T03:24:20.475Z,54.93
2019-01-28T03:26:54.808Z,54.23
2019-01-28T03:29:28.047Z,55.88
2019-01-28T03:32:02.811Z,56.35
2019-01-28T03:34:36.060Z,54.45
2019-01-28T03:37:10.646Z,53.90
2019-01-28T03:39:45.707Z,59.73
2019-01-28T03:42:20.020Z,68.72
2019-01-28T03:44:54.311Z,69.70
2019-01-28T03:47:28.495Z,60.92
2019-01-28T03:50:03.059Z,72.62
2019-01-28T03:52:38.210Z,73.85
2019-01-28T03:55:12.783Z,64.20
2019-01-28T03:57:47.571Z,73.95
2019-01-28T04:00:24.119Z,69.97
2019-01-28T04:02:57.962Z,63.78
2019-01-28T04:05:32.076Z,62.17
2019-01-28T04:08:07.496Z,58.38
2019-01-28T04:10:42.028Z,53.68
2019-01-28T04:13:16.799Z,57.05
2019-01-28T04:15:51.918Z,57.65
2019-01-28T04:18:25.569Z,54.38
2019-01-28T04:20:59.856Z,54.58
2019-01-28T04:23:34.071Z,54.35
2019-01-28T04:26:08.285Z,56.63
2019-01-28T04:28:42.581Z,53.52
2019-01-28T04:31:16.711Z,63.70
2019-01-28T04:33:50.930Z,84.13
2019-01-28T04:36:25.911Z,82.47
2019-01-28T04:38:59.827Z,96.60
2019-01-28T04:41:34.571Z,107.20
2019-01-28T04:44:08.800Z,111.08
2019-01-28T04:46:42.013Z,99.30
2019-01-28T04:49:16.000Z,74.60
2019-01-28T04:51:50.878Z,61.60
2019-01-28T04:54:24.221Z,54.88
2019-01-28T04:56:59.109Z,55.73
2019-01-28T04:59:32.484Z,57.43
2019-01-28T05:02:06.055Z,60.75
2019-01-28T05:04:40.599Z,67.92
2019-01-28T05:07:14.901Z,59.40
2019-01-28T05:09:50.417Z,62.15
2019-01-28T05:12:24.742Z,60.65
2019-01-28T05:14:58.491Z,71.75
2019-01-28T05:17:32.716Z,72.75
2019-01-28T05:20:07.630Z,60.25
2019-01-28T05:22:41.825Z,64.45
2019-01-28T05:25:15.639Z,68.02
2019-01-28T05:27:50.565Z,80.05
2019-01-28T05:30:26.761Z,80.38
2019-01-28T05:33:00.787Z,80.38
2019-01-28T05:35:34.516Z,78.00
2019-01-28T05:38:10.729Z,66.77
2019-01-28T05:40:45.357Z,72.40
2019-01-28T05:43:22.926Z,66.97
2019-01-28T05:45:57.005Z,77.00
2019-01-28T05:48:31.461Z,68.00
2019-01-28T05:51:10.245Z,84.07
2019-01-28T05:53:44.596Z,96.25
2019-01-28T05:56:19.445Z,104.92
2019-01-28T05:58:53.433Z,127.78
2019-01-28T06:01:28.506Z,153.65
2019-01-28T06:04:03.637Z,113.70
2019-01-28T06:06:45.862Z,76.77
2019-01-28T06:09:17.210Z,74.65
2019-01-28T06:11:51.439Z,74.03
2019-01-28T06:14:27.343Z,87.40
2019-01-28T06:17:02.690Z,73.75
2019-01-28T06:19:37.707Z,72.82
2019-01-28T06:22:11.109Z,70.67
2019-01-28T06:24:45.061Z,78.45
2019-01-28T06:27:18.588Z,74.07
2019-01-28T06:29:52.689Z,77.78
2019-01-28T06:32:26.135Z,77.95
2019-01-28T06:34:59.421Z,83.52
2019-01-28T06:37:33.455Z,85.30
2019-01-28T06:40:08.300Z,87.90
2019-01-28T06:42:42.389Z,92.35
2019-01-28T06:45:17.917Z,91.87
2019-01-28T06:47:52.672Z,97.78
2019-01-28T06:50:25.288Z,91.02
2019-01-28T06:53:00.034Z,86.65
2019-01-28T06:55:34.868Z,84.30
2019-01-28T06:58:08.699Z,82.45
2019-01-28T07:00:42.531Z,76.72
2019-01-28T07:03:16.350Z,73.95
2019-01-28T07:05:49.850Z,76.02
2019-01-28T07:08:24.394Z,82.40
2019-01-28T07:10:58.073Z,75.87
2019-01-28T07:13:32.139Z,75.72
2019-01-28T07:16:06.612Z,87.60
2019-01-28T07:18:40.510Z,93.60
2019-01-28T07:21:14.835Z,94.07
2019-01-28T07:23:47.653Z,92.95
2019-01-28T07:26:22.162Z,88.03
2019-01-28T07:28:56.043Z,91.32
2019-01-28T07:31:29.569Z,87.02
2019-01-28T07:34:03.189Z,85.07
2019-01-28T07:36:37.825Z,79.60
2019-01-28T07:39:12.498Z,70.52
2019-01-28T07:41:53.481Z,71.20
2019-01-28T07:44:27.201Z,63.35
2019-01-28T07:47:01.395Z,76.85
2019-01-28T07:49:35.097Z,96.22
2019-01-28T07:52:08.913Z,88.35
2019-01-28T07:54:41.733Z,84.90
2019-01-28T07:57:15.629Z,84.30
2019-01-28T07:59:48.848Z,90.17
2019-01-28T08:02:22.719Z,97.12
2019-01-28T08:04:55.249Z,98.97
2019-01-28T08:07:28.766Z,84.72
2019-01-28T08:10:02.684Z,97.02
2019-01-28T08:12:37.163Z,107.97
2019-01-28T08:15:11.157Z,111.20
2019-01-28T08:17:45.157Z,106.58
2019-01-28T08:20:19.657Z,102.67
2019-01-28T08:22:54.153Z,100.05
2019-01-28T08:25:27.972Z,107.52
2019-01-28T08:28:01.963Z,100.40
2019-01-28T08:30:38.554Z,90.17
2019-01-28T08:33:12.565Z,93.07
2019-01-28T08:35:47.724Z,81.35
2019-01-28T08:38:21.049Z,82.37
2019-01-28T08:40:54.789Z,75.25
2019-01-28T08:43:29.046Z,78.50
2019-01-28T08:46:02.843Z,74.22
2019-01-28T08:48:36.145Z,71.33
2019-01-28T08:51:09.589Z,80.62
2019-01-28T08:53:45.887Z,76.92
2019-01-28T08:56:19.589Z,76.28
2019-01-28T08:58:52.909Z,80.42
2019-01-28T09:01:32.093Z,86.80
2019-01-28T09:04:05.359Z,80.70
2019-01-28T09:06:39.833Z,90.47
2019-01-28T09:09:13.755Z,89.75
2019-01-28T09:11:47.113Z,83.05
2019-01-28T09:14:21.624Z,88.37
2019-01-28T09:16:53.921Z,71.55
2019-01-28T09:19:26.818Z,72.75
2019-01-28T09:22:00.163Z,75.20
2019-01-28T09:24:34.200Z,77.85
2019-01-28T09:27:07.967Z,71.75
2019-01-28T09:29:41.330Z,76.67
2019-01-28T09:32:15.347Z,72.32
2019-01-28T09:34:49.155Z,77.75
2019-01-28T09:37:23.164Z,86.95
2019-01-28T09:39:56.705Z,75.05
2019-01-28T09:42:30.356Z,76.02
2019-01-28T09:45:03.513Z,69.07
2019-01-28T09:47:37.688Z,74.65
2019-01-28T09:50:10.694Z,78.47
2019-01-28T09:52:44.774Z,77.25
2019-01-28T09:55:19.808Z,64.58
2019-01-28T09:57:52.853Z,75.08
2019-01-28T10:00:38.469Z,72.80
2019-01-28T10:03:11.813Z,67.90
2019-01-28T10:05:45.659Z,75.20
2019-01-28T10:08:18.235Z,66.15
2019-01-28T10:10:51.918Z,59.53
2019-01-28T10:13:26.068Z,67.27
2019-01-28T10:15:59.876Z,67.53
2019-01-28T10:18:33.670Z,77.22
2019-01-28T10:21:07.495Z,71.72
2019-01-28T10:23:41.209Z,70.50
2019-01-28T10:26:15.034Z,69.70
2019-01-28T10:28:49.195Z,76.65
2019-01-28T10:31:23.111Z,73.00
2019-01-28T10:33:58.903Z,73.17
2019-01-28T10:36:34.281Z,73.75
2019-01-28T10:39:12.741Z,76.57
2019-01-28T10:41:46.540Z,72.67
2019-01-28T10:44:20.248Z,77.60
2019-01-28T10:46:54.255Z,85.90
2019-01-28T10:49:27.261Z,78.57
2019-01-28T10:52:01.872Z,74.95
2019-01-28T10:54:35.607Z,76.20
2019-01-28T10:57:08.039Z,80.53
2019-01-28T10:59:41.921Z,84.15
2019-01-28T11:02:15.025Z,73.47
2019-01-28T11:04:48.834Z,79.60
2019-01-28T11:07:22.642Z,72.67
2019-01-28T11:09:57.135Z,74.55
2019-01-28T11:12:30.868Z,75.45
2019-01-28T11:15:05.078Z,74.12
2019-01-28T11:17:38.546Z,77.17
2019-01-28T11:20:13.240Z,76.90
2019-01-28T11:22:46.519Z,80.38
2019-01-28T11:25:23.396Z,84.50
2019-01-28T11:27:57.324Z,77.35
2019-01-28T11:30:57.339Z,79.60
2019-01-28T11:33:31.905Z,85.07
2019-01-28T11:36:06.182Z,84.80
2019-01-28T11:38:39.306Z,78.50
2019-01-28T11:41:13.063Z,81.08
2019-01-28T11:43:46.224Z,81.53
2019-01-28T11:46:18.898Z,80.38
2019-01-28T11:48:52.356Z,77.65
2019-01-28T11:51:25.018Z,92.15
2019-01-28T11:53:58.269Z,77.12
2019-01-28T11:56:32.117Z,82.22
2019-01-28T11:59:05.365Z,79.17
2019-01-28T12:01:38.611Z,80.65
2019-01-28T12:04:11.258Z,80.75
2019-01-28T12:06:44.071Z,85.28
2019-01-28T12:09:17.771Z,82.78
2019-01-28T12:11:50.752Z,83.62
2019-01-28T12:14:23.634Z,83.20
2019-01-28T12:16:56.799Z,86.42
2019-01-28T12:19:30.057Z,82.17
2019-01-28T12:22:02.886Z,85.25
2019-01-28T12:24:36.783Z,85.80
2019-01-28T12:27:11.979Z,93.27
2019-01-28T12:29:45.865Z,98.25
2019-01-28T12:32:18.919Z,102.15
2019-01-28T12:34:52.218Z,99.75
2019-01-28T12:37:26.856Z,95.87
2019-01-28T12:40:00.820Z,91.10
2019-01-28T12:42:33.595Z,112.12
2019-01-28T12:45:07.473Z,108.20
2019-01-28T12:47:39.890Z,93.58
2019-01-28T12:50:13.662Z,96.28
2019-01-28T12:52:48.112Z,99.80
2019-01-28T12:55:21.281Z,98.00
2019-01-28T12:57:54.555Z,91.70
2019-01-28T13:00:33.719Z,83.27
2019-01-28T13:03:08.172Z,75.08
2019-01-28T13:05:41.667Z,72.87
2019-01-28T13:08:15.647Z,70.92
2019-01-28T13:10:48.720Z,66.95
2019-01-28T13:13:21.846Z,67.62
2019-01-28T13:15:55.961Z,73.30
2019-01-28T13:18:30.650Z,74.80
2019-01-28T13:21:03.969Z,67.70
2019-01-28T13:23:38.669Z,68.25
2019-01-28T13:26:12.564Z,75.52
2019-01-28T13:28:47.493Z,60.10
2019-01-28T13:31:20.994Z,70.15
2019-01-28T13:33:54.820Z,71.20
2019-01-28T13:36:27.859Z,68.75
2019-01-28T13:39:00.708Z,71.85
2019-01-28T13:41:33.871Z,68.28
2019-01-28T13:44:07.502Z,79.87
2019-01-28T13:46:40.836Z,76.33
2019-01-28T13:49:13.349Z,69.67
2019-01-28T13:51:48.325Z,71.33
2019-01-28T13:54:22.229Z,73.15
2019-01-28T13:56:55.535Z,75.00
2019-01-28T13:59:29.009Z,68.35
2019-01-28T14:02:03.084Z,64.97
2019-01-28T14:04:37.312Z,66.17
2019-01-28T14:07:10.695Z,64.45
2019-01-28T14:09:44.833Z,64.47
2019-01-28T14:12:19.137Z,62.45
2019-01-28T14:14:52.437Z,66.62
2019-01-28T14:17:26.435Z,71.45
2019-01-28T14:20:00.680Z,73.33
2019-01-28T14:22:34.662Z,76.20
2019-01-28T14:25:08.338Z,68.17
2019-01-28T14:27:42.710Z,62.75
2019-01-28T14:30:26.733Z,65.35
2019-01-28T14:33:00.938Z,54.08
2019-01-28T14:35:35.322Z,62.00
2019-01-28T14:38:12.096Z,60.85
2019-01-28T14:40:48.218Z,56.55
2019-01-28T14:43:22.131Z,62.40
2019-01-28T14:45:57.120Z,70.72
2019-01-28T14:48:32.133Z,68.10
2019-01-28T14:51:06.687Z,65.47
2019-01-28T14:53:40.104Z,62.85
2019-01-28T14:56:14.562Z,65.57
2019-01-28T14:58:47.885Z,65.42
2019-01-28T15:01:21.384Z,64.47
2019-01-28T15:03:55.249Z,60.70
2019-01-28T15:06:28.318Z,62.40
2019-01-28T15:09:01.259Z,63.75
2019-01-28T15:11:35.466Z,75.30
2019-01-28T15:14:10.231Z,75.83
2019-01-28T15:16:44.352Z,79.45
2019-01-28T15:19:19.890Z,78.00
2019-01-28T15:21:53.902Z,84.32
2019-01-28T15:24:28.168Z,84.87
2019-01-28T15:27:01.493Z,105.95
2019-01-28T15:29:35.246Z,105.67
2019-01-28T15:32:08.627Z,127.35
2019-01-28T15:34:42.259Z,119.00
2019-01-28T15:37:16.048Z,131.65
2019-01-28T15:39:49.853Z,125.45
2019-01-28T15:42:24.070Z,102.47
2019-01-28T15:44:58.287Z,119.05
2019-01-28T15:47:33.193Z,98.22
2019-01-28T15:50:10.698Z,103.05
2019-01-28T15:52:43.014Z,96.60
2019-01-28T15:55:20.672Z,87.53
2019-01-28T15:57:55.972Z,93.90
2019-01-28T16:00:32.361Z,101.40
2019-01-28T16:03:07.350Z,97.35
2019-01-28T16:05:40.232Z,86.02
2019-01-28T16:08:14.229Z,79.72
2019-01-28T16:10:47.861Z,73.90
2019-01-28T16:13:22.066Z,78.42
2019-01-28T16:15:56.235Z,69.87
2019-01-28T16:18:34.484Z,79.75
2019-01-28T16:21:07.426Z,66.90
2019-01-28T16:23:41.769Z,68.85
2019-01-28T16:26:15.495Z,73.47
2019-01-28T16:28:49.417Z,70.35
2019-01-28T16:31:23.334Z,65.90
2019-01-28T16:33:56.619Z,73.75
2019-01-28T16:36:29.942Z,67.72
2019-01-28T16:39:04.739Z,67.65
2019-01-28T16:41:38.438Z,59.98
2019-01-28T16:44:12.427Z,66.70
2019-01-28T16:46:45.443Z,72.30
2019-01-28T16:49:19.220Z,77.25
2019-01-28T16:51:52.944Z,81.45
2019-01-28T16:54:26.470Z,85.77
2019-01-28T16:56:59.359Z,85.55
2019-01-28T16:59:33.723Z,79.58
2019-01-28T17:02:07.405Z,86.90
2019-01-28T17:04:42.446Z,77.03
2019-01-28T17:07:16.602Z,71.17
2019-01-28T17:09:51.516Z,76.35
2019-01-28T17:12:24.732Z,82.82
2019-01-28T17:14:58.524Z,74.47
2019-01-28T17:17:32.662Z,78.00
2019-01-28T17:20:08.207Z,95.60
2019-01-28T17:22:41.462Z,114.82
2019-01-28T17:25:17.940Z,123.15
2019-01-28T17:27:51.675Z,111.62
2019-01-28T17:30:35.073Z,119.15
2019-01-28T17:33:08.875Z,116.53
2019-01-28T17:35:42.738Z,127.50
2019-01-28T17:38:17.345Z,132.18
2019-01-28T17:40:52.296Z,138.03
2019-01-28T17:43:26.952Z,155.85
2019-01-28T17:46:01.802Z,142.40
2019-01-28T17:48:37.172Z,129.40
2019-01-28T17:51:11.005Z,139.62
2019-01-28T17:53:46.149Z,125.27
2019-01-28T17:56:20.523Z,138.37
2019-01-28T17:58:54.324Z,129.40
2019-01-28T18:01:33.802Z,132.85
2019-01-28T18:04:08.794Z,111.95
2019-01-28T18:06:42.054Z,104.90
2019-01-28T18:09:14.968Z,98.97
2019-01-28T18:11:49.283Z,96.28
2019-01-28T18:14:22.608Z,105.25
2019-01-28T18:16:56.375Z,116.35
2019-01-28T18:19:29.706Z,114.12
2019-01-28T18:22:03.470Z,112.37
2019-01-28T18:24:37.320Z,111.00
2019-01-28T18:27:10.489Z,99.67
2019-01-28T18:29:43.846Z,91.53
2019-01-28T18:32:16.855Z,96.00
2019-01-28T18:34:49.682Z,100.85
2019-01-28T18:37:23.079Z,109.63
2019-01-28T18:39:56.443Z,106.03
2019-01-28T18:42:29.310Z,100.65
2019-01-28T18:45:01.840Z,90.92
2019-01-28T18:47:34.770Z,94.05
2019-01-28T18:50:08.869Z,94.90
2019-01-28T18:52:40.927Z,106.65
2019-01-28T18:55:13.551Z,108.50
2019-01-28T18:57:45.919Z,103.80
2019-01-28T19:00:22.523Z,100.35
2019-01-28T19:02:56.315Z,89.83
2019-01-28T19:05:47.920Z,87.10
2019-01-28T19:08:39.013Z,93.15
2019-01-28T19:11:29.660Z,104.50
2019-01-28T19:14:33.703Z,144.80
2019-01-28T19:17:36.777Z,122.87
2019-01-28T19:20:39.612Z,88.82
2019-01-28T19:23:12.437Z,83.75
2019-01-28T19:25:45.807Z,83.55
2019-01-28T19:28:18.213Z,89.95
2019-01-28T19:30:51.310Z,106.97
2019-01-28T19:33:24.549Z,90.87
2019-01-28T19:35:58.061Z,84.15
2019-01-28T19:38:34.626Z,83.92
2019-01-28T19:41:08.590Z,104.35
2019-01-28T19:43:44.106Z,72.58
2019-01-28T19:46:18.195Z,77.62
2019-01-28T19:48:52.090Z,85.65
2019-01-28T19:51:25.084Z,75.83
2019-01-28T19:54:00.372Z,82.35
2019-01-28T19:56:34.931Z,82.92
2019-01-28T19:59:08.547Z,83.65
2019-01-28T20:01:42.794Z,83.67
2019-01-28T20:04:16.834Z,85.47
2019-01-28T20:06:51.062Z,87.15
2019-01-28T20:09:26.300Z,77.65
2019-01-28T20:12:01.142Z,80.92
2019-01-28T20:14:37.511Z,85.45
2019-01-28T20:17:12.896Z,82.60
2019-01-28T20:19:48.470Z,92.20
2019-01-28T20:22:24.968Z,82.35
2019-01-28T20:24:57.483Z,78.20
2019-01-28T20:27:31.309Z,83.67
2019-01-28T20:30:05.147Z,88.67
2019-01-28T20:32:38.501Z,91.70
2019-01-28T20:35:14.971Z,85.03
2019-01-28T20:37:47.515Z,85.85
2019-01-28T20:40:22.646Z,82.80
2019-01-28T20:42:57.621Z,81.22
2019-01-28T20:45:31.101Z,84.32
2019-01-28T20:48:03.657Z,81.28
2019-01-28T20:50:36.105Z,88.87
2019-01-28T20:53:08.429Z,81.53
2019-01-28T20:55:41.805Z,85.22
2019-01-28T20:58:15.688Z,87.08
2019-01-28T21:00:49.571Z,92.00
2019-01-28T21:03:22.587Z,91.85
2019-01-28T21:05:56.249Z,88.40
2019-01-28T21:08:28.966Z,89.37
2019-01-28T21:11:03.423Z,89.25
2019-01-28T21:13:35.474Z,85.97
2019-01-28T21:16:08.002Z,91.65
2019-01-28T21:18:40.775Z,101.47
2019-01-28T21:21:15.698Z,114.05
2019-01-28T21:23:48.688Z,121.00
2019-01-28T21:26:22.010Z,111.80
2019-01-28T21:28:57.887Z,113.17
2019-01-28T21:31:31.110Z,109.32
2019-01-28T21:34:04.432Z,125.40
2019-01-28T21:36:48.659Z,125.60
2019-01-28T21:39:21.075Z,121.90
2019-01-28T21:41:55.264Z,117.08
2019-01-28T21:44:29.456Z,122.40
2019-01-28T21:47:03.823Z,124.12
2019-01-28T21:49:38.022Z,118.10
2019-01-28T21:52:11.409Z,98.58
2019-01-28T21:54:45.324Z,96.90
2019-01-28T21:57:19.380Z,93.52
2019-01-28T21:59:54.279Z,80.17
2019-01-28T22:02:29.709Z,86.50
2019-01-28T22:05:05.136Z,81.35
2019-01-28T22:07:38.942Z,78.33
2019-01-28T22:10:13.712Z,85.47
2019-01-28T22:12:48.544Z,82.00
2019-01-28T22:15:24.010Z,78.95
2019-01-28T22:17:58.187Z,79.15
2019-01-28T22:20:32.252Z,85.72
2019-01-28T22:23:07.028Z,90.67
2019-01-28T22:25:41.923Z,92.35
2019-01-28T22:28:16.740Z,94.32
2019-01-28T22:30:51.857Z,85.40
2019-01-28T22:33:25.152Z,81.87
2019-01-28T22:35:58.961Z,79.45
2019-01-28T22:38:32.813Z,82.60
2019-01-28T22:41:08.910Z,70.70
2019-01-28T22:43:44.596Z,67.90
2019-01-28T22:46:20.466Z,82.85
2019-01-28T22:48:55.730Z,110.10
2019-01-28T22:51:30.833Z,93.80
2019-01-28T22:54:06.029Z,93.37
2019-01-28T22:56:40.370Z,100.27
2019-01-28T22:59:14.747Z,110.92
2019-01-28T23:01:49.353Z,116.22
2019-01-28T23:04:25.485Z,96.60
2019-01-28T23:07:01.654Z,94.97
2019-01-28T23:09:37.352Z,81.40
2019-01-28T23:12:11.921Z,77.32
2019-01-28T23:14:46.890Z,80.42
2019-01-28T23:17:22.651Z,87.45
2019-01-28T23:19:57.549Z,82.97
2019-01-28T23:22:32.592Z,102.15
2019-01-28T23:25:09.937Z,102.35
2019-01-28T23:27:45.912Z,88.47
2019-01-28T23:30:21.053Z,103.25
2019-01-28T23:32:56.230Z,141.32
2019-01-28T23:35:31.537Z,135.97
2019-01-28T23:38:06.466Z,113.52
2019-01-28T23:40:41.380Z,99.30
2019-01-28T23:43:16.434Z,100.90
2019-01-28T23:45:51.432Z,95.80
2019-01-28T23:48:26.995Z,98.12
2019-01-28T23:51:01.374Z,90.38
2019-01-28T23:53:35.611Z,85.97
2019-01-28T23:56:10.568Z,92.75
2019-01-28T23:58:45.778Z,91.85
